Airfield :
LOGIN :

Register | Disclaimer

   EN    FR    IT 

 










Legend :    VFR   Marginal VFR   IFR   Intensive IFR   Very Intensive IFR
Visi :
Ceiling :
>= 8 km
>= 3000ft
5 to 8 km
1000 to 3000 ft
1500m to 5 km
500 to 1000 ft
800 to 1500m
200 to 500 ft
< 800m
< 200 ft
Symbols :   Thunderstorms  Fog  Heavy snow  Heavy precipitations  Wind > 20 kt
SIGMETs :     Misc.  Thunderstorms  Icing  Turbulence  Mountain Waves  Volcanic Ashes






- Airport Elevation : 390 ft
- IATA code : NQY


EGHQ - Newquay

CURRENT METAR :
  • 082020Z 26038G58KT 8000 -DZ BKN024 09/06 Q0997

EXPIRED METARs :
  • 081950Z 25030G46KT 9999 BKN024 09/06 Q0999
  • 081920Z 26030G41KT 9999 BKN025 09/05 Q1000 RERA
  • 081850Z 26032G49KT 9999 BKN019 09/05 Q1000 RERA
  • 081820Z 26029G47KT 9000 VCSH BKN022 08/05 Q1001 RERA
  • 081750Z 26025G37KT 9999 FEW017 BKN032 08/04 Q1001 RERA

TAF TAF EGHQ
Valid from the 08 at 21:00 until the 09 at 06:00 UTC


082000Z 0821/0906 28030G40KT 9999 FEW010 SCT025
TEMPO 0821/0903 28035G50KT 6000 SHRA
PROB40
TEMPO 0821/0903 29040G60KT
PROB30
TEMPO 0821/0824 4000 +SHRA TSGS BKN010 BKN020CB
BECMG 0903/0906 31030G40KT



MET'MAP, your aeronautical weather chart ! - Copyright ORBIFLY December 2007 - Disclaimer

ORBIFLY MET'MAP TEAM :

Programming & Development : Alexandra Zaïnal
Concept & original design : Baudouin d'Aumeries
Assistance for programming : Marc-Olivier Méhu
Technical & hardware support : Manuel Goepfert

Contact : metmap@orbifly.com




SOURCES & CREDITS :

   NOAA